sensor_id;sensor_type;location;lat;lon;timestamp;P1;durP1;ratioP1;P2;durP2;ratioP2
71187;SDS011;58893;53.130;8.158;2022-12-18T00:01:51;53.57;;;14.00;;
71187;SDS011;58893;53.130;8.158;2022-12-18T00:04:21;40.63;;;13.10;;
71187;SDS011;58893;53.130;8.158;2022-12-18T00:06:48;50.15;;;14.52;;
71187;SDS011;58893;53.130;8.158;2022-12-18T00:09:14;48.00;;;16.73;;
71187;SDS011;58893;53.130;8.158;2022-12-18T00:11:40;57.45;;;13.95;;
71187;SDS011;58893;53.130;8.158;2022-12-18T00:14:06;55.30;;;15.45;;
71187;SDS011;58893;53.130;8.158;2022-12-18T00:16:32;59.80;;;16.77;;
71187;SDS011;58893;53.130;8.158;2022-12-18T00:19:00;55.45;;;13.48;;
71187;SDS011;58893;53.130;8.158;2022-12-18T00:21:27;60.08;;;15.10;;
71187;SDS011;58893;53.130;8.158;2022-12-18T00:23:53;60.33;;;15.00;;
71187;SDS011;58893;53.130;8.158;2022-12-18T00:26:20;63.53;;;17.40;;
71187;SDS011;58893;53.130;8.158;2022-12-18T00:28:47;75.55;;;14.35;;
71187;SDS011;58893;53.130;8.158;2022-12-18T00:31:15;62.05;;;17.10;;
71187;SDS011;58893;53.130;8.158;2022-12-18T00:33:43;60.17;;;13.63;;
71187;SDS011;58893;53.130;8.158;2022-12-18T00:36:10;54.13;;;13.85;;
71187;SDS011;58893;53.130;8.158;2022-12-18T00:38:40;64.68;;;15.15;;
71187;SDS011;58893;53.130;8.158;2022-12-18T00:41:07;39.95;;;12.25;;
71187;SDS011;58893;53.130;8.158;2022-12-18T00:43:33;61.80;;;16.45;;
71187;SDS011;58893;53.130;8.158;2022-12-18T00:45:59;47.57;;;13.67;;
71187;SDS011;58893;53.130;8.158;2022-12-18T00:48:25;60.03;;;14.03;;
71187;SDS011;58893;53.130;8.158;2022-12-18T00:50:51;49.33;;;15.10;;
71187;SDS011;58893;53.130;8.158;2022-12-18T00:53:16;43.90;;;12.87;;
71187;SDS011;58893;53.130;8.158;2022-12-18T00:55:43;55.95;;;14.25;;
71187;SDS011;58893;53.130;8.158;2022-12-18T00:58:10;48.42;;;15.23;;
71187;SDS011;58893;53.130;8.158;2022-12-18T01:00:36;43.83;;;12.95;;
71187;SDS011;58893;53.130;8.158;2022-12-18T01:03:03;40.85;;;13.20;;
71187;SDS011;58893;53.130;8.158;2022-12-18T01:05:29;60.22;;;14.55;;
71187;SDS011;58893;53.130;8.158;2022-12-18T01:07:55;47.33;;;12.47;;
71187;SDS011;58893;53.130;8.158;2022-12-18T01:10:21;43.25;;;12.48;;
71187;SDS011;58893;53.130;8.158;2022-12-18T01:12:48;42.35;;;13.73;;
71187;SDS011;58893;53.130;8.158;2022-12-18T01:15:14;37.93;;;12.17;;
71187;SDS011;58893;53.130;8.158;2022-12-18T01:17:40;48.42;;;13.88;;
71187;SDS011;58893;53.130;8.158;2022-12-18T01:20:06;40.10;;;13.30;;
71187;SDS011;58893;53.130;8.158;2022-12-18T01:22:33;40.95;;;12.60;;
71187;SDS011;58893;53.130;8.158;2022-12-18T01:25:00;33.25;;;11.07;;
71187;SDS011;58893;53.130;8.158;2022-12-18T01:27:26;39.70;;;11.87;;
71187;SDS011;58893;53.130;8.158;2022-12-18T01:29:51;42.73;;;11.47;;
71187;SDS011;58893;53.130;8.158;2022-12-18T01:32:17;34.90;;;11.03;;
71187;SDS011;58893;53.130;8.158;2022-12-18T01:34:43;30.77;;;10.73;;
71187;SDS011;58893;53.130;8.158;2022-12-18T01:37:08;37.70;;;11.17;;
71187;SDS011;58893;53.130;8.158;2022-12-18T01:39:34;30.97;;;8.23;;
71187;SDS011;58893;53.130;8.158;2022-12-18T01:42:00;31.00;;;10.00;;
71187;SDS011;58893;53.130;8.158;2022-12-18T01:47:20;38.42;;;9.82;;
71187;SDS011;58893;53.130;8.158;2022-12-18T01:49:49;25.10;;;9.10;;
71187;SDS011;58893;53.130;8.158;2022-12-18T01:52:17;41.17;;;11.65;;
71187;SDS011;58893;53.130;8.158;2022-12-18T01:54:44;27.80;;;9.85;;
71187;SDS011;58893;53.130;8.158;2022-12-18T01:57:11;32.83;;;10.60;;
71187;SDS011;58893;53.130;8.158;2022-12-18T01:59:36;30.10;;;8.30;;
71187;SDS011;58893;53.130;8.158;2022-12-18T02:02:04;38.22;;;9.32;;
71187;SDS011;58893;53.130;8.158;2022-12-18T02:04:29;37.60;;;12.63;;
71187;SDS011;58893;53.130;8.158;2022-12-18T02:07:07;32.70;;;8.70;;
71187;SDS011;58893;53.130;8.158;2022-12-18T02:09:39;29.77;;;9.38;;
71187;SDS011;58893;53.130;8.158;2022-12-18T02:12:16;33.88;;;10.52;;
71187;SDS011;58893;53.130;8.158;2022-12-18T02:20:28;35.38;;;10.40;;
71187;SDS011;58893;53.130;8.158;2022-12-18T02:23:10;26.50;;;9.02;;
71187;SDS011;58893;53.130;8.158;2022-12-18T02:28:26;21.60;;;10.27;;
71187;SDS011;58893;53.130;8.158;2022-12-18T02:30:56;31.80;;;9.65;;
71187;SDS011;58893;53.130;8.158;2022-12-18T02:33:25;31.80;;;9.05;;
71187;SDS011;58893;53.130;8.158;2022-12-18T02:35:53;41.40;;;9.10;;
71187;SDS011;58893;53.130;8.158;2022-12-18T02:38:20;31.38;;;8.65;;
71187;SDS011;58893;53.130;8.158;2022-12-18T02:40:46;31.87;;;8.17;;
71187;SDS011;58893;53.130;8.158;2022-12-18T02:43:15;26.40;;;9.88;;
71187;SDS011;58893;53.130;8.158;2022-12-18T02:45:57;35.55;;;10.23;;
71187;SDS011;58893;53.130;8.158;2022-12-18T02:48:31;39.15;;;8.55;;
71187;SDS011;58893;53.130;8.158;2022-12-18T02:56:19;29.00;;;7.65;;
71187;SDS011;58893;53.130;8.158;2022-12-18T03:01:28;33.65;;;8.50;;
71187;SDS011;58893;53.130;8.158;2022-12-18T03:04:07;28.92;;;8.82;;
71187;SDS011;58893;53.130;8.158;2022-12-18T03:06:40;31.75;;;10.05;;
71187;SDS011;58893;53.130;8.158;2022-12-18T03:09:11;27.15;;;8.50;;
71187;SDS011;58893;53.130;8.158;2022-12-18T03:11:48;20.02;;;7.20;;
71187;SDS011;58893;53.130;8.158;2022-12-18T03:14:38;29.63;;;7.88;;
71187;SDS011;58893;53.130;8.158;2022-12-18T03:17:07;34.53;;;9.77;;
71187;SDS011;58893;53.130;8.158;2022-12-18T03:19:36;30.85;;;9.30;;
71187;SDS011;58893;53.130;8.158;2022-12-18T03:22:04;21.75;;;7.82;;
71187;SDS011;58893;53.130;8.158;2022-12-18T03:24:32;23.20;;;8.43;;
71187;SDS011;58893;53.130;8.158;2022-12-18T03:27:02;34.15;;;10.38;;
71187;SDS011;58893;53.130;8.158;2022-12-18T03:29:34;25.77;;;8.55;;
71187;SDS011;58893;53.130;8.158;2022-12-18T03:35:07;37.00;;;9.52;;
71187;SDS011;58893;53.130;8.158;2022-12-18T03:37:37;30.75;;;8.70;;
71187;SDS011;58893;53.130;8.158;2022-12-18T03:40:03;30.03;;;10.40;;
71187;SDS011;58893;53.130;8.158;2022-12-18T03:42:48;22.83;;;9.57;;
71187;SDS011;58893;53.130;8.158;2022-12-18T03:53:00;23.98;;;9.02;;
71187;SDS011;58893;53.130;8.158;2022-12-18T03:55:36;27.02;;;8.57;;
71187;SDS011;58893;53.130;8.158;2022-12-18T03:58:03;24.55;;;8.35;;
71187;SDS011;58893;53.130;8.158;2022-12-18T04:00:31;28.38;;;9.13;;
71187;SDS011;58893;53.130;8.158;2022-12-18T04:02:59;23.92;;;8.45;;
71187;SDS011;58893;53.130;8.158;2022-12-18T04:05:26;27.05;;;8.90;;
71187;SDS011;58893;53.130;8.158;2022-12-18T04:07:54;20.20;;;9.10;;
71187;SDS011;58893;53.130;8.158;2022-12-18T04:10:21;24.17;;;8.25;;
71187;SDS011;58893;53.130;8.158;2022-12-18T04:12:47;20.70;;;7.30;;
71187;SDS011;58893;53.130;8.158;2022-12-18T04:15:13;22.37;;;8.40;;
71187;SDS011;58893;53.130;8.158;2022-12-18T04:17:39;16.97;;;8.50;;
71187;SDS011;58893;53.130;8.158;2022-12-18T04:20:12;26.42;;;8.23;;
71187;SDS011;58893;53.130;8.158;2022-12-18T04:22:38;15.70;;;7.07;;
71187;SDS011;58893;53.130;8.158;2022-12-18T04:25:04;23.83;;;10.07;;
71187;SDS011;58893;53.130;8.158;2022-12-18T04:27:30;29.88;;;9.57;;
71187;SDS011;58893;53.130;8.158;2022-12-18T04:29:55;38.60;;;10.17;;
71187;SDS011;58893;53.130;8.158;2022-12-18T04:32:21;24.37;;;9.07;;
71187;SDS011;58893;53.130;8.158;2022-12-18T04:34:46;25.77;;;9.83;;
71187;SDS011;58893;53.130;8.158;2022-12-18T04:37:12;23.40;;;9.40;;
71187;SDS011;58893;53.130;8.158;2022-12-18T04:39:38;25.37;;;9.87;;
71187;SDS011;58893;53.130;8.158;2022-12-18T04:42:04;23.67;;;9.57;;
71187;SDS011;58893;53.130;8.158;2022-12-18T04:44:29;19.47;;;8.07;;
71187;SDS011;58893;53.130;8.158;2022-12-18T04:46:55;33.07;;;8.07;;
71187;SDS011;58893;53.130;8.158;2022-12-18T04:49:21;19.07;;;7.47;;
71187;SDS011;58893;53.130;8.158;2022-12-18T04:51:46;27.50;;;10.00;;
71187;SDS011;58893;53.130;8.158;2022-12-18T04:54:12;31.70;;;9.23;;
71187;SDS011;58893;53.130;8.158;2022-12-18T04:56:38;18.80;;;8.83;;
71187;SDS011;58893;53.130;8.158;2022-12-18T04:59:03;25.17;;;8.50;;
71187;SDS011;58893;53.130;8.158;2022-12-18T05:01:29;16.77;;;8.45;;
71187;SDS011;58893;53.130;8.158;2022-12-18T05:03:55;23.67;;;9.83;;
71187;SDS011;58893;53.130;8.158;2022-12-18T05:06:21;23.50;;;7.60;;
71187;SDS011;58893;53.130;8.158;2022-12-18T05:08:46;35.80;;;10.87;;
71187;SDS011;58893;53.130;8.158;2022-12-18T05:11:13;22.03;;;8.30;;
71187;SDS011;58893;53.130;8.158;2022-12-18T05:13:41;30.77;;;10.48;;
71187;SDS011;58893;53.130;8.158;2022-12-18T05:16:06;24.35;;;9.73;;
71187;SDS011;58893;53.130;8.158;2022-12-18T05:18:32;20.13;;;8.43;;
71187;SDS011;58893;53.130;8.158;2022-12-18T05:20:58;21.47;;;8.27;;
71187;SDS011;58893;53.130;8.158;2022-12-18T05:23:24;21.57;;;9.00;;
71187;SDS011;58893;53.130;8.158;2022-12-18T05:25:53;17.70;;;7.50;;
71187;SDS011;58893;53.130;8.158;2022-12-18T05:28:25;27.30;;;8.68;;
71187;SDS011;58893;53.130;8.158;2022-12-18T05:30:53;17.35;;;7.13;;
71187;SDS011;58893;53.130;8.158;2022-12-18T05:33:20;21.30;;;8.15;;
71187;SDS011;58893;53.130;8.158;2022-12-18T05:35:50;19.90;;;8.40;;
71187;SDS011;58893;53.130;8.158;2022-12-18T05:38:17;16.02;;;7.55;;
71187;SDS011;58893;53.130;8.158;2022-12-18T05:40:43;14.55;;;6.90;;
71187;SDS011;58893;53.130;8.158;2022-12-18T05:43:09;16.83;;;7.80;;
71187;SDS011;58893;53.130;8.158;2022-12-18T05:45:41;17.33;;;7.60;;
71187;SDS011;58893;53.130;8.158;2022-12-18T05:48:07;39.15;;;8.90;;
71187;SDS011;58893;53.130;8.158;2022-12-18T05:50:34;20.10;;;7.78;;
71187;SDS011;58893;53.130;8.158;2022-12-18T05:53:04;23.48;;;8.65;;
71187;SDS011;58893;53.130;8.158;2022-12-18T05:55:33;22.90;;;7.50;;
71187;SDS011;58893;53.130;8.158;2022-12-18T05:58:00;16.88;;;7.03;;
71187;SDS011;58893;53.130;8.158;2022-12-18T06:00:26;16.40;;;9.02;;
71187;SDS011;58893;53.130;8.158;2022-12-18T06:02:52;20.97;;;7.90;;
71187;SDS011;58893;53.130;8.158;2022-12-18T06:05:17;22.17;;;9.50;;
71187;SDS011;58893;53.130;8.158;2022-12-18T06:07:43;35.53;;;9.00;;
71187;SDS011;58893;53.130;8.158;2022-12-18T06:10:09;15.90;;;6.80;;
71187;SDS011;58893;53.130;8.158;2022-12-18T06:12:35;17.00;;;7.17;;
71187;SDS011;58893;53.130;8.158;2022-12-18T06:15:00;28.57;;;7.50;;
71187;SDS011;58893;53.130;8.158;2022-12-18T06:17:30;20.35;;;7.57;;
71187;SDS011;58893;53.130;8.158;2022-12-18T06:19:56;15.70;;;7.70;;
71187;SDS011;58893;53.130;8.158;2022-12-18T06:22:22;18.97;;;7.60;;
71187;SDS011;58893;53.130;8.158;2022-12-18T06:24:48;27.70;;;7.40;;
71187;SDS011;58893;53.130;8.158;2022-12-18T06:27:13;15.43;;;7.00;;
71187;SDS011;58893;53.130;8.158;2022-12-18T06:29:39;19.53;;;5.93;;
71187;SDS011;58893;53.130;8.158;2022-12-18T06:32:04;17.43;;;7.63;;
71187;SDS011;58893;53.130;8.158;2022-12-18T06:34:30;15.23;;;6.57;;
71187;SDS011;58893;53.130;8.158;2022-12-18T06:36:56;19.37;;;8.47;;
71187;SDS011;58893;53.130;8.158;2022-12-18T06:39:22;19.73;;;7.07;;
71187;SDS011;58893;53.130;8.158;2022-12-18T06:41:47;15.37;;;7.57;;
71187;SDS011;58893;53.130;8.158;2022-12-18T06:44:13;17.73;;;8.13;;
71187;SDS011;58893;53.130;8.158;2022-12-18T06:46:38;20.93;;;6.80;;
71187;SDS011;58893;53.130;8.158;2022-12-18T06:49:04;16.53;;;6.53;;
71187;SDS011;58893;53.130;8.158;2022-12-18T06:51:29;13.63;;;6.30;;
71187;SDS011;58893;53.130;8.158;2022-12-18T06:53:55;18.07;;;7.13;;
71187;SDS011;58893;53.130;8.158;2022-12-18T06:56:21;13.47;;;6.60;;
71187;SDS011;58893;53.130;8.158;2022-12-18T06:58:46;18.50;;;7.27;;
71187;SDS011;58893;53.130;8.158;2022-12-18T07:01:13;14.23;;;5.80;;
71187;SDS011;58893;53.130;8.158;2022-12-18T07:03:39;12.60;;;5.72;;
71187;SDS011;58893;53.130;8.158;2022-12-18T07:06:06;14.25;;;6.28;;
71187;SDS011;58893;53.130;8.158;2022-12-18T07:08:37;18.48;;;6.90;;
71187;SDS011;58893;53.130;8.158;2022-12-18T07:11:03;13.80;;;7.00;;
71187;SDS011;58893;53.130;8.158;2022-12-18T07:13:29;13.50;;;5.55;;
71187;SDS011;58893;53.130;8.158;2022-12-18T07:15:55;16.70;;;7.40;;
71187;SDS011;58893;53.130;8.158;2022-12-18T07:18:27;17.30;;;7.30;;
71187;SDS011;58893;53.130;8.158;2022-12-18T07:20:53;10.60;;;5.20;;
71187;SDS011;58893;53.130;8.158;2022-12-18T07:23:18;13.77;;;6.10;;
71187;SDS011;58893;53.130;8.158;2022-12-18T07:25:44;9.80;;;5.03;;
71187;SDS011;58893;53.130;8.158;2022-12-18T07:28:10;13.27;;;5.73;;
71187;SDS011;58893;53.130;8.158;2022-12-18T07:30:37;14.88;;;5.40;;
71187;SDS011;58893;53.130;8.158;2022-12-18T07:33:03;14.18;;;5.93;;
71187;SDS011;58893;53.130;8.158;2022-12-18T07:35:29;13.77;;;5.90;;
71187;SDS011;58893;53.130;8.158;2022-12-18T07:37:54;11.93;;;5.80;;
71187;SDS011;58893;53.130;8.158;2022-12-18T07:40:20;8.30;;;4.90;;
71187;SDS011;58893;53.130;8.158;2022-12-18T07:42:45;15.60;;;7.17;;
71187;SDS011;58893;53.130;8.158;2022-12-18T07:45:11;12.90;;;6.23;;
71187;SDS011;58893;53.130;8.158;2022-12-18T07:47:37;16.03;;;6.27;;
71187;SDS011;58893;53.130;8.158;2022-12-18T07:50:03;25.23;;;5.90;;
71187;SDS011;58893;53.130;8.158;2022-12-18T07:52:29;12.77;;;5.63;;
71187;SDS011;58893;53.130;8.158;2022-12-18T07:54:55;10.27;;;5.60;;
71187;SDS011;58893;53.130;8.158;2022-12-18T07:57:20;12.23;;;5.60;;
71187;SDS011;58893;53.130;8.158;2022-12-18T07:59:46;13.27;;;5.40;;
71187;SDS011;58893;53.130;8.158;2022-12-18T08:02:12;17.60;;;6.60;;
71187;SDS011;58893;53.130;8.158;2022-12-18T08:04:37;9.57;;;4.73;;
71187;SDS011;58893;53.130;8.158;2022-12-18T08:07:03;12.20;;;6.00;;
71187;SDS011;58893;53.130;8.158;2022-12-18T08:09:28;12.80;;;5.70;;
71187;SDS011;58893;53.130;8.158;2022-12-18T08:11:54;10.20;;;4.40;;
71187;SDS011;58893;53.130;8.158;2022-12-18T08:14:20;10.33;;;4.63;;
71187;SDS011;58893;53.130;8.158;2022-12-18T08:16:45;10.17;;;4.60;;
71187;SDS011;58893;53.130;8.158;2022-12-18T08:19:11;9.63;;;5.17;;
71187;SDS011;58893;53.130;8.158;2022-12-18T08:21:37;12.50;;;5.33;;
71187;SDS011;58893;53.130;8.158;2022-12-18T08:24:02;12.47;;;5.53;;
71187;SDS011;58893;53.130;8.158;2022-12-18T08:26:29;8.17;;;4.30;;
71187;SDS011;58893;53.130;8.158;2022-12-18T08:28:56;13.88;;;4.78;;
71187;SDS011;58893;53.130;8.158;2022-12-18T08:31:23;14.63;;;5.80;;
71187;SDS011;58893;53.130;8.158;2022-12-18T08:33:50;10.45;;;5.20;;
71187;SDS011;58893;53.130;8.158;2022-12-18T08:36:17;14.55;;;4.95;;
71187;SDS011;58893;53.130;8.158;2022-12-18T08:38:44;19.48;;;7.15;;
71187;SDS011;58893;53.130;8.158;2022-12-18T08:41:11;15.80;;;6.40;;
71187;SDS011;58893;53.130;8.158;2022-12-18T08:43:38;13.57;;;6.43;;
71187;SDS011;58893;53.130;8.158;2022-12-18T08:46:23;13.10;;;4.55;;
71187;SDS011;58893;53.130;8.158;2022-12-18T08:48:50;12.45;;;5.68;;
71187;SDS011;58893;53.130;8.158;2022-12-18T08:51:16;9.52;;;4.13;;
71187;SDS011;58893;53.130;8.158;2022-12-18T08:53:42;11.17;;;5.50;;
71187;SDS011;58893;53.130;8.158;2022-12-18T08:56:09;9.20;;;4.65;;
71187;SDS011;58893;53.130;8.158;2022-12-18T08:58:36;8.00;;;4.97;;
71187;SDS011;58893;53.130;8.158;2022-12-18T09:01:04;11.47;;;5.17;;
71187;SDS011;58893;53.130;8.158;2022-12-18T09:03:32;14.27;;;4.60;;
71187;SDS011;58893;53.130;8.158;2022-12-18T09:05:57;11.40;;;5.33;;
71187;SDS011;58893;53.130;8.158;2022-12-18T09:08:24;9.20;;;4.63;;
71187;SDS011;58893;53.130;8.158;2022-12-18T09:10:50;9.20;;;4.90;;
71187;SDS011;58893;53.130;8.158;2022-12-18T09:13:16;10.70;;;5.30;;
71187;SDS011;58893;53.130;8.158;2022-12-18T09:15:43;11.25;;;5.70;;
71187;SDS011;58893;53.130;8.158;2022-12-18T09:18:11;13.10;;;6.05;;
71187;SDS011;58893;53.130;8.158;2022-12-18T09:20:37;13.60;;;6.28;;
71187;SDS011;58893;53.130;8.158;2022-12-18T09:23:04;13.93;;;6.05;;
71187;SDS011;58893;53.130;8.158;2022-12-18T09:25:31;14.77;;;5.97;;
71187;SDS011;58893;53.130;8.158;2022-12-18T09:27:58;17.80;;;5.72;;
71187;SDS011;58893;53.130;8.158;2022-12-18T09:30:25;12.73;;;4.85;;
71187;SDS011;58893;53.130;8.158;2022-12-18T09:32:51;10.20;;;4.78;;
71187;SDS011;58893;53.130;8.158;2022-12-18T09:35:16;19.80;;;6.30;;
71187;SDS011;58893;53.130;8.158;2022-12-18T09:37:42;11.20;;;5.73;;
71187;SDS011;58893;53.130;8.158;2022-12-18T09:40:18;8.73;;;4.43;;
71187;SDS011;58893;53.130;8.158;2022-12-18T09:42:47;11.02;;;4.78;;
71187;SDS011;58893;53.130;8.158;2022-12-18T09:45:17;11.68;;;5.35;;
71187;SDS011;58893;53.130;8.158;2022-12-18T09:47:43;10.35;;;4.50;;
71187;SDS011;58893;53.130;8.158;2022-12-18T09:50:45;8.13;;;4.65;;
71187;SDS011;58893;53.130;8.158;2022-12-18T09:53:06;11.15;;;4.70;;
71187;SDS011;58893;53.130;8.158;2022-12-18T09:55:39;11.70;;;5.50;;
71187;SDS011;58893;53.130;8.158;2022-12-18T09:58:12;12.55;;;4.68;;
71187;SDS011;58893;53.130;8.158;2022-12-18T10:00:45;10.95;;;4.80;;
71187;SDS011;58893;53.130;8.158;2022-12-18T10:03:12;11.40;;;5.17;;
71187;SDS011;58893;53.130;8.158;2022-12-18T10:11:22;11.13;;;4.45;;
71187;SDS011;58893;53.130;8.158;2022-12-18T10:25:22;12.85;;;4.20;;
71187;SDS011;58893;53.130;8.158;2022-12-18T10:28:10;9.60;;;4.28;;
71187;SDS011;58893;53.130;8.158;2022-12-18T10:30:38;12.27;;;6.00;;
71187;SDS011;58893;53.130;8.158;2022-12-18T10:33:05;12.68;;;5.43;;
71187;SDS011;58893;53.130;8.158;2022-12-18T10:35:32;6.72;;;4.63;;
71187;SDS011;58893;53.130;8.158;2022-12-18T10:43:29;9.05;;;5.40;;
71187;SDS011;58893;53.130;8.158;2022-12-18T10:45:58;9.50;;;4.82;;
71187;SDS011;58893;53.130;8.158;2022-12-18T10:48:31;12.60;;;4.90;;
71187;SDS011;58893;53.130;8.158;2022-12-18T10:50:58;9.20;;;4.78;;
71187;SDS011;58893;53.130;8.158;2022-12-18T10:53:26;14.25;;;6.45;;
71187;SDS011;58893;53.130;8.158;2022-12-18T10:55:57;9.60;;;4.72;;
71187;SDS011;58893;53.130;8.158;2022-12-18T10:58:29;15.50;;;6.28;;
71187;SDS011;58893;53.130;8.158;2022-12-18T11:03:36;22.58;;;5.78;;
71187;SDS011;58893;53.130;8.158;2022-12-18T11:06:08;14.77;;;5.72;;
71187;SDS011;58893;53.130;8.158;2022-12-18T11:08:42;13.45;;;6.15;;
71187;SDS011;58893;53.130;8.158;2022-12-18T11:11:21;10.98;;;5.80;;
71187;SDS011;58893;53.130;8.158;2022-12-18T11:14:07;9.77;;;5.20;;
71187;SDS011;58893;53.130;8.158;2022-12-18T11:16:46;13.63;;;5.63;;
71187;SDS011;58893;53.130;8.158;2022-12-18T11:19:21;11.88;;;5.72;;
71187;SDS011;58893;53.130;8.158;2022-12-18T11:21:55;18.25;;;5.80;;
71187;SDS011;58893;53.130;8.158;2022-12-18T11:26:51;9.57;;;4.55;;
71187;SDS011;58893;53.130;8.158;2022-12-18T11:29:17;8.13;;;4.63;;
71187;SDS011;58893;53.130;8.158;2022-12-18T11:31:48;13.57;;;4.85;;
71187;SDS011;58893;53.130;8.158;2022-12-18T11:34:25;12.90;;;5.90;;
71187;SDS011;58893;53.130;8.158;2022-12-18T11:36:53;11.30;;;4.63;;
71187;SDS011;58893;53.130;8.158;2022-12-18T11:39:21;13.10;;;5.90;;
71187;SDS011;58893;53.130;8.158;2022-12-18T11:41:58;10.05;;;6.50;;
71187;SDS011;58893;53.130;8.158;2022-12-18T11:44:39;12.82;;;5.90;;
71187;SDS011;58893;53.130;8.158;2022-12-18T11:47:15;10.90;;;5.35;;
71187;SDS011;58893;53.130;8.158;2022-12-18T11:49:50;12.93;;;3.92;;
71187;SDS011;58893;53.130;8.158;2022-12-18T11:52:21;10.80;;;4.97;;
71187;SDS011;58893;53.130;8.158;2022-12-18T11:54:55;12.07;;;4.55;;
71187;SDS011;58893;53.130;8.158;2022-12-18T11:57:35;8.98;;;4.75;;
71187;SDS011;58893;53.130;8.158;2022-12-18T12:00:12;13.52;;;6.13;;
71187;SDS011;58893;53.130;8.158;2022-12-18T12:05:25;9.13;;;4.13;;
71187;SDS011;58893;53.130;8.158;2022-12-18T12:08:19;11.07;;;4.72;;
71187;SDS011;58893;53.130;8.158;2022-12-18T12:22:40;14.43;;;5.00;;
71187;SDS011;58893;53.130;8.158;2022-12-18T12:33:46;13.40;;;5.38;;
71187;SDS011;58893;53.130;8.158;2022-12-18T12:38:57;8.63;;;5.13;;
71187;SDS011;58893;53.130;8.158;2022-12-18T12:41:27;10.83;;;5.40;;
71187;SDS011;58893;53.130;8.158;2022-12-18T12:44:17;8.60;;;4.10;;
71187;SDS011;58893;53.130;8.158;2022-12-18T12:46:48;8.20;;;4.68;;
71187;SDS011;58893;53.130;8.158;2022-12-18T12:49:20;11.87;;;5.20;;
71187;SDS011;58893;53.130;8.158;2022-12-18T12:51:57;16.33;;;5.22;;
71187;SDS011;58893;53.130;8.158;2022-12-18T12:54:24;16.73;;;6.83;;
71187;SDS011;58893;53.130;8.158;2022-12-18T13:04:44;9.00;;;4.43;;
71187;SDS011;58893;53.130;8.158;2022-12-18T13:12:54;11.30;;;5.03;;
71187;SDS011;58893;53.130;8.158;2022-12-18T13:18:11;8.20;;;4.00;;
71187;SDS011;58893;53.130;8.158;2022-12-18T13:31:57;13.60;;;5.33;;
71187;SDS011;58893;53.130;8.158;2022-12-18T13:34:19;10.17;;;5.40;;
71187;SDS011;58893;53.130;8.158;2022-12-18T13:36:46;17.37;;;5.90;;
71187;SDS011;58893;53.130;8.158;2022-12-18T13:41:44;9.75;;;4.93;;
71187;SDS011;58893;53.130;8.158;2022-12-18T13:46:56;10.87;;;5.10;;
71187;SDS011;58893;53.130;8.158;2022-12-18T13:49:23;10.53;;;5.30;;
71187;SDS011;58893;53.130;8.158;2022-12-18T13:54:47;19.67;;;5.33;;
71187;SDS011;58893;53.130;8.158;2022-12-18T13:57:32;9.97;;;4.73;;
71187;SDS011;58893;53.130;8.158;2022-12-18T14:02:46;11.30;;;4.60;;
71187;SDS011;58893;53.130;8.158;2022-12-18T14:05:28;12.60;;;5.10;;
71187;SDS011;58893;53.130;8.158;2022-12-18T14:07:59;5.00;;;3.40;;
71187;SDS011;58893;53.130;8.158;2022-12-18T14:10:28;8.07;;;4.80;;
71187;SDS011;58893;53.130;8.158;2022-12-18T14:12:53;8.40;;;4.60;;
71187;SDS011;58893;53.130;8.158;2022-12-18T14:17:54;7.73;;;4.97;;
71187;SDS011;58893;53.130;8.158;2022-12-18T14:20:21;7.70;;;4.73;;
71187;SDS011;58893;53.130;8.158;2022-12-18T14:22:48;7.03;;;4.00;;
71187;SDS011;58893;53.130;8.158;2022-12-18T14:25:21;9.90;;;4.68;;
71187;SDS011;58893;53.130;8.158;2022-12-18T14:30:26;9.97;;;4.27;;
71187;SDS011;58893;53.130;8.158;2022-12-18T14:33:13;9.70;;;4.93;;
71187;SDS011;58893;53.130;8.158;2022-12-18T14:35:41;11.27;;;4.40;;
71187;SDS011;58893;53.130;8.158;2022-12-18T14:38:20;10.25;;;5.07;;
71187;SDS011;58893;53.130;8.158;2022-12-18T14:40:52;14.60;;;4.35;;
71187;SDS011;58893;53.130;8.158;2022-12-18T14:43:20;9.07;;;4.45;;
71187;SDS011;58893;53.130;8.158;2022-12-18T14:45:46;8.23;;;4.28;;
71187;SDS011;58893;53.130;8.158;2022-12-18T14:50:54;10.35;;;4.80;;
71187;SDS011;58893;53.130;8.158;2022-12-18T14:56:02;10.20;;;4.50;;
71187;SDS011;58893;53.130;8.158;2022-12-18T14:58:43;14.02;;;5.38;;
71187;SDS011;58893;53.130;8.158;2022-12-18T15:01:25;8.77;;;4.72;;
71187;SDS011;58893;53.130;8.158;2022-12-18T15:03:57;10.60;;;5.00;;
71187;SDS011;58893;53.130;8.158;2022-12-18T15:06:45;9.63;;;5.03;;
71187;SDS011;58893;53.130;8.158;2022-12-18T15:09:23;10.40;;;5.13;;
71187;SDS011;58893;53.130;8.158;2022-12-18T15:11:54;12.50;;;4.93;;
71187;SDS011;58893;53.130;8.158;2022-12-18T15:14:22;7.82;;;4.75;;
71187;SDS011;58893;53.130;8.158;2022-12-18T15:16:54;10.73;;;4.35;;
71187;SDS011;58893;53.130;8.158;2022-12-18T15:19:20;10.70;;;4.77;;
71187;SDS011;58893;53.130;8.158;2022-12-18T15:21:52;13.40;;;5.22;;
71187;SDS011;58893;53.130;8.158;2022-12-18T15:24:18;6.80;;;3.90;;
71187;SDS011;58893;53.130;8.158;2022-12-18T15:26:49;10.35;;;5.13;;
71187;SDS011;58893;53.130;8.158;2022-12-18T15:29:20;9.77;;;4.93;;
71187;SDS011;58893;53.130;8.158;2022-12-18T15:32:03;14.02;;;5.45;;
71187;SDS011;58893;53.130;8.158;2022-12-18T15:34:31;12.67;;;5.10;;
71187;SDS011;58893;53.130;8.158;2022-12-18T15:36:58;15.70;;;5.43;;
71187;SDS011;58893;53.130;8.158;2022-12-18T15:39:24;9.80;;;4.20;;
71187;SDS011;58893;53.130;8.158;2022-12-18T15:41:50;9.90;;;4.10;;
71187;SDS011;58893;53.130;8.158;2022-12-18T15:44:34;11.68;;;4.57;;
71187;SDS011;58893;53.130;8.158;2022-12-18T15:47:00;6.77;;;3.80;;
71187;SDS011;58893;53.130;8.158;2022-12-18T15:49:25;10.70;;;4.10;;
71187;SDS011;58893;53.130;8.158;2022-12-18T15:51:52;7.80;;;3.77;;
71187;SDS011;58893;53.130;8.158;2022-12-18T15:54:21;7.95;;;3.17;;
71187;SDS011;58893;53.130;8.158;2022-12-18T15:57:11;7.25;;;3.25;;
71187;SDS011;58893;53.130;8.158;2022-12-18T15:59:52;8.60;;;3.90;;
71187;SDS011;58893;53.130;8.158;2022-12-18T16:02:21;7.13;;;3.43;;
71187;SDS011;58893;53.130;8.158;2022-12-18T16:04:47;4.50;;;3.07;;
71187;SDS011;58893;53.130;8.158;2022-12-18T16:07:14;7.90;;;3.50;;
71187;SDS011;58893;53.130;8.158;2022-12-18T16:09:39;8.40;;;3.87;;
71187;SDS011;58893;53.130;8.158;2022-12-18T16:12:06;7.30;;;3.70;;
71187;SDS011;58893;53.130;8.158;2022-12-18T16:14:38;9.27;;;3.40;;
71187;SDS011;58893;53.130;8.158;2022-12-18T16:17:05;7.10;;;3.10;;
71187;SDS011;58893;53.130;8.158;2022-12-18T16:19:34;9.23;;;3.17;;
71187;SDS011;58893;53.130;8.158;2022-12-18T16:21:59;5.37;;;2.93;;
71187;SDS011;58893;53.130;8.158;2022-12-18T16:24:29;5.90;;;2.80;;
71187;SDS011;58893;53.130;8.158;2022-12-18T16:26:57;7.37;;;3.67;;
71187;SDS011;58893;53.130;8.158;2022-12-18T16:29:24;10.00;;;3.80;;
71187;SDS011;58893;53.130;8.158;2022-12-18T16:32:01;6.10;;;3.57;;
71187;SDS011;58893;53.130;8.158;2022-12-18T16:34:34;5.47;;;3.47;;
71187;SDS011;58893;53.130;8.158;2022-12-18T16:37:06;5.15;;;3.03;;
71187;SDS011;58893;53.130;8.158;2022-12-18T16:39:33;6.73;;;3.30;;
71187;SDS011;58893;53.130;8.158;2022-12-18T16:42:00;7.43;;;3.77;;
71187;SDS011;58893;53.130;8.158;2022-12-18T16:44:26;4.47;;;2.97;;
71187;SDS011;58893;53.130;8.158;2022-12-18T16:46:52;10.33;;;3.60;;
71187;SDS011;58893;53.130;8.158;2022-12-18T16:49:18;19.93;;;3.90;;
71187;SDS011;58893;53.130;8.158;2022-12-18T16:51:47;7.63;;;3.80;;
71187;SDS011;58893;53.130;8.158;2022-12-18T16:54:13;6.27;;;3.70;;
71187;SDS011;58893;53.130;8.158;2022-12-18T16:56:39;12.15;;;3.42;;
71187;SDS011;58893;53.130;8.158;2022-12-18T16:59:06;6.53;;;4.00;;